sensor_id;sensor_type;location;lat;lon;timestamp;P1;P2;P0
82886;PMS5003;72660;51.258;-2.200;2023-12-07T00:00:12;4;4;
82886;PMS5003;72660;51.258;-2.200;2023-12-07T00:02:37;4;4;
82886;PMS5003;72660;51.258;-2.200;2023-12-07T00:05:02;3;3;
82886;PMS5003;72660;51.258;-2.200;2023-12-07T00:07:27;5;5;
82886;PMS5003;72660;51.258;-2.200;2023-12-07T00:09:53;4;4;
82886;PMS5003;72660;51.258;-2.200;2023-12-07T00:12:18;5;5;
82886;PMS5003;72660;51.258;-2.200;2023-12-07T00:14:44;6;6;
82886;PMS5003;72660;51.258;-2.200;2023-12-07T00:17:09;1;1;
82886;PMS5003;72660;51.258;-2.200;2023-12-07T00:19:34;4;3;
82886;PMS5003;72660;51.258;-2.200;2023-12-07T00:22:00;8;4;
82886;PMS5003;72660;51.258;-2.200;2023-12-07T00:24:25;8;6;
82886;PMS5003;72660;51.258;-2.200;2023-12-07T00:26:51;4;3;
82886;PMS5003;72660;51.258;-2.200;2023-12-07T00:29:16;5;5;
82886;PMS5003;72660;51.258;-2.200;2023-12-07T00:31:42;2;2;
82886;PMS5003;72660;51.258;-2.200;2023-12-07T00:34:07;3;3;
82886;PMS5003;72660;51.258;-2.200;2023-12-07T00:36:32;7;5;
82886;PMS5003;72660;51.258;-2.200;2023-12-07T00:38:58;6;6;
82886;PMS5003;72660;51.258;-2.200;2023-12-07T00:41:23;5;5;
82886;PMS5003;72660;51.258;-2.200;2023-12-07T00:43:54;5;4;
82886;PMS5003;72660;51.258;-2.200;2023-12-07T00:46:14;5;5;
82886;PMS5003;72660;51.258;-2.200;2023-12-07T00:48:40;8;5;
82886;PMS5003;72660;51.258;-2.200;2023-12-07T00:51:05;6;5;
82886;PMS5003;72660;51.258;-2.200;2023-12-07T00:53:30;5;5;
82886;PMS5003;72660;51.258;-2.200;2023-12-07T00:55:56;3;3;
82886;PMS5003;72660;51.258;-2.200;2023-12-07T00:58:21;4;4;
82886;PMS5003;72660;51.258;-2.200;2023-12-07T01:00:46;3;3;
82886;PMS5003;72660;51.258;-2.200;2023-12-07T01:03:12;5;3;
82886;PMS5003;72660;51.258;-2.200;2023-12-07T01:05:37;6;6;
82886;PMS5003;72660;51.258;-2.200;2023-12-07T01:08:03;4;4;
82886;PMS5003;72660;51.258;-2.200;2023-12-07T01:10:28;4;4;
82886;PMS5003;72660;51.258;-2.200;2023-12-07T01:12:53;8;5;
82886;PMS5003;72660;51.258;-2.200;2023-12-07T01:15:19;4;4;
82886;PMS5003;72660;51.258;-2.200;2023-12-07T01:17:44;5;4;
82886;PMS5003;72660;51.258;-2.200;2023-12-07T01:20:10;4;4;
82886;PMS5003;72660;51.258;-2.200;2023-12-07T01:22:35;9;4;
82886;PMS5003;72660;51.258;-2.200;2023-12-07T01:25:00;4;4;
82886;PMS5003;72660;51.258;-2.200;2023-12-07T01:27:26;7;7;
82886;PMS5003;72660;51.258;-2.200;2023-12-07T01:29:51;8;8;
82886;PMS5003;72660;51.258;-2.200;2023-12-07T01:32:17;9;8;
82886;PMS5003;72660;51.258;-2.200;2023-12-07T01:34:42;7;7;
82886;PMS5003;72660;51.258;-2.200;2023-12-07T01:37:07;8;6;
82886;PMS5003;72660;51.258;-2.200;2023-12-07T01:39:33;7;6;
82886;PMS5003;72660;51.258;-2.200;2023-12-07T01:41:59;5;4;
82886;PMS5003;72660;51.258;-2.200;2023-12-07T01:44:24;3;3;
82886;PMS5003;72660;51.258;-2.200;2023-12-07T01:46:49;6;6;
82886;PMS5003;72660;51.258;-2.200;2023-12-07T01:49:14;6;4;
82886;PMS5003;72660;51.258;-2.200;2023-12-07T01:51:40;6;6;
82886;PMS5003;72660;51.258;-2.200;2023-12-07T01:54:05;6;5;
82886;PMS5003;72660;51.258;-2.200;2023-12-07T01:56:30;4;4;
82886;PMS5003;72660;51.258;-2.200;2023-12-07T01:58:56;6;6;
82886;PMS5003;72660;51.258;-2.200;2023-12-07T02:01:21;7;6;
82886;PMS5003;72660;51.258;-2.200;2023-12-07T02:03:47;6;6;
82886;PMS5003;72660;51.258;-2.200;2023-12-07T02:06:12;8;6;
82886;PMS5003;72660;51.258;-2.200;2023-12-07T02:08:37;5;4;
82886;PMS5003;72660;51.258;-2.200;2023-12-07T02:11:03;11;7;
82886;PMS5003;72660;51.258;-2.200;2023-12-07T02:13:29;5;5;
82886;PMS5003;72660;51.258;-2.200;2023-12-07T02:15:54;8;7;
82886;PMS5003;72660;51.258;-2.200;2023-12-07T02:18:21;7;7;
82886;PMS5003;72660;51.258;-2.200;2023-12-07T02:20:45;7;7;
82886;PMS5003;72660;51.258;-2.200;2023-12-07T02:23:10;6;6;
82886;PMS5003;72660;51.258;-2.200;2023-12-07T02:25:36;8;8;
82886;PMS5003;72660;51.258;-2.200;2023-12-07T02:28:00;9;9;
82886;PMS5003;72660;51.258;-2.200;2023-12-07T02:30:26;7;6;
82886;PMS5003;72660;51.258;-2.200;2023-12-07T02:32:51;7;7;
82886;PMS5003;72660;51.258;-2.200;2023-12-07T02:35:17;7;7;
82886;PMS5003;72660;51.258;-2.200;2023-12-07T02:37:43;8;7;
82886;PMS5003;72660;51.258;-2.200;2023-12-07T02:40:08;10;7;
82886;PMS5003;72660;51.258;-2.200;2023-12-07T02:42:33;7;7;
82886;PMS5003;72660;51.258;-2.200;2023-12-07T02:44:58;7;5;
82886;PMS5003;72660;51.258;-2.200;2023-12-07T02:47:23;6;6;
82886;PMS5003;72660;51.258;-2.200;2023-12-07T02:49:48;3;3;
82886;PMS5003;72660;51.258;-2.200;2023-12-07T02:52:14;6;5;
82886;PMS5003;72660;51.258;-2.200;2023-12-07T02:54:39;4;4;
82886;PMS5003;72660;51.258;-2.200;2023-12-07T02:57:05;6;6;
82886;PMS5003;72660;51.258;-2.200;2023-12-07T02:59:30;6;4;
82886;PMS5003;72660;51.258;-2.200;2023-12-07T03:01:55;4;3;
82886;PMS5003;72660;51.258;-2.200;2023-12-07T03:04:21;3;3;
82886;PMS5003;72660;51.258;-2.200;2023-12-07T03:06:46;8;4;
82886;PMS5003;72660;51.258;-2.200;2023-12-07T03:09:12;4;3;
82886;PMS5003;72660;51.258;-2.200;2023-12-07T03:11:37;5;4;
82886;PMS5003;72660;51.258;-2.200;2023-12-07T03:14:03;2;2;
82886;PMS5003;72660;51.258;-2.200;2023-12-07T03:16:28;3;3;
82886;PMS5003;72660;51.258;-2.200;2023-12-07T03:18:54;4;4;
82886;PMS5003;72660;51.258;-2.200;2023-12-07T03:21:19;3;3;
82886;PMS5003;72660;51.258;-2.200;2023-12-07T03:23:44;1;1;
82886;PMS5003;72660;51.258;-2.200;2023-12-07T03:26:10;2;2;
82886;PMS5003;72660;51.258;-2.200;2023-12-07T03:28:35;3;2;
82886;PMS5003;72660;51.258;-2.200;2023-12-07T03:31:01;3;1;
82886;PMS5003;72660;51.258;-2.200;2023-12-07T03:33:26;3;2;
82886;PMS5003;72660;51.258;-2.200;2023-12-07T03:35:51;2;2;
82886;PMS5003;72660;51.258;-2.200;2023-12-07T03:38:17;2;2;
82886;PMS5003;72660;51.258;-2.200;2023-12-07T03:40:42;2;1;
82886;PMS5003;72660;51.258;-2.200;2023-12-07T03:43:08;2;2;
82886;PMS5003;72660;51.258;-2.200;2023-12-07T03:45:33;1;1;
82886;PMS5003;72660;51.258;-2.200;2023-12-07T03:47:58;2;2;
82886;PMS5003;72660;51.258;-2.200;2023-12-07T03:50:24;1;1;
82886;PMS5003;72660;51.258;-2.200;2023-12-07T03:52:49;0;0;
82886;PMS5003;72660;51.258;-2.200;2023-12-07T03:55:15;1;1;
82886;PMS5003;72660;51.258;-2.200;2023-12-07T03:57:40;2;2;
82886;PMS5003;72660;51.258;-2.200;2023-12-07T04:00:07;1;1;
82886;PMS5003;72660;51.258;-2.200;2023-12-07T04:02:32;2;2;
82886;PMS5003;72660;51.258;-2.200;2023-12-07T04:04:56;0;0;
82886;PMS5003;72660;51.258;-2.200;2023-12-07T04:07:22;2;2;
82886;PMS5003;72660;51.258;-2.200;2023-12-07T04:09:47;0;0;
82886;PMS5003;72660;51.258;-2.200;2023-12-07T04:12:12;0;0;
82886;PMS5003;72660;51.258;-2.200;2023-12-07T04:14:38;2;0;
82886;PMS5003;72660;51.258;-2.200;2023-12-07T04:17:03;0;0;
82886;PMS5003;72660;51.258;-2.200;2023-12-07T04:19:29;3;2;
82886;PMS5003;72660;51.258;-2.200;2023-12-07T04:21:54;0;0;
82886;PMS5003;72660;51.258;-2.200;2023-12-07T04:24:19;0;0;
82886;PMS5003;72660;51.258;-2.200;2023-12-07T04:26:45;0;0;
82886;PMS5003;72660;51.258;-2.200;2023-12-07T04:29:10;0;0;
82886;PMS5003;72660;51.258;-2.200;2023-12-07T04:31:36;1;1;
82886;PMS5003;72660;51.258;-2.200;2023-12-07T04:34:01;1;1;
82886;PMS5003;72660;51.258;-2.200;2023-12-07T04:36:27;1;1;
82886;PMS5003;72660;51.258;-2.200;2023-12-07T04:38:52;0;0;
82886;PMS5003;72660;51.258;-2.200;2023-12-07T04:41:17;1;1;
82886;PMS5003;72660;51.258;-2.200;2023-12-07T04:43:43;0;0;
82886;PMS5003;72660;51.258;-2.200;2023-12-07T04:46:08;1;1;
82886;PMS5003;72660;51.258;-2.200;2023-12-07T04:48:33;0;0;
82886;PMS5003;72660;51.258;-2.200;2023-12-07T04:50:59;0;0;
82886;PMS5003;72660;51.258;-2.200;2023-12-07T04:53:24;0;0;
82886;PMS5003;72660;51.258;-2.200;2023-12-07T04:55:50;2;0;
82886;PMS5003;72660;51.258;-2.200;2023-12-07T04:58:15;1;0;
82886;PMS5003;72660;51.258;-2.200;2023-12-07T05:00:40;0;0;
82886;PMS5003;72660;51.258;-2.200;2023-12-07T05:03:06;0;0;
82886;PMS5003;72660;51.258;-2.200;2023-12-07T05:05:31;0;0;
82886;PMS5003;72660;51.258;-2.200;2023-12-07T05:07:56;0;0;
82886;PMS5003;72660;51.258;-2.200;2023-12-07T05:10:22;0;0;
82886;PMS5003;72660;51.258;-2.200;2023-12-07T05:12:47;0;0;
82886;PMS5003;72660;51.258;-2.200;2023-12-07T05:15:13;0;0;
82886;PMS5003;72660;51.258;-2.200;2023-12-07T05:17:38;0;0;
82886;PMS5003;72660;51.258;-2.200;2023-12-07T05:20:04;1;1;
82886;PMS5003;72660;51.258;-2.200;2023-12-07T05:22:29;0;0;
82886;PMS5003;72660;51.258;-2.200;2023-12-07T05:24:54;1;1;
82886;PMS5003;72660;51.258;-2.200;2023-12-07T05:27:20;1;1;
82886;PMS5003;72660;51.258;-2.200;2023-12-07T05:29:45;0;0;
82886;PMS5003;72660;51.258;-2.200;2023-12-07T05:32:10;1;1;
82886;PMS5003;72660;51.258;-2.200;2023-12-07T05:34:36;0;0;
82886;PMS5003;72660;51.258;-2.200;2023-12-07T05:37:01;0;0;
82886;PMS5003;72660;51.258;-2.200;2023-12-07T05:39:27;0;0;
82886;PMS5003;72660;51.258;-2.200;2023-12-07T05:41:52;0;0;
82886;PMS5003;72660;51.258;-2.200;2023-12-07T05:44:18;0;0;
82886;PMS5003;72660;51.258;-2.200;2023-12-07T05:46:43;0;0;
82886;PMS5003;72660;51.258;-2.200;2023-12-07T05:49:08;0;0;
82886;PMS5003;72660;51.258;-2.200;2023-12-07T05:51:33;1;1;
82886;PMS5003;72660;51.258;-2.200;2023-12-07T05:54:04;0;0;
82886;PMS5003;72660;51.258;-2.200;2023-12-07T05:56:25;0;0;
82886;PMS5003;72660;51.258;-2.200;2023-12-07T05:58:54;1;1;
82886;PMS5003;72660;51.258;-2.200;2023-12-07T06:01:16;0;0;
82886;PMS5003;72660;51.258;-2.200;2023-12-07T06:03:40;0;0;
82886;PMS5003;72660;51.258;-2.200;2023-12-07T06:06:06;1;1;
82886;PMS5003;72660;51.258;-2.200;2023-12-07T06:08:31;0;0;
82886;PMS5003;72660;51.258;-2.200;2023-12-07T06:10:58;0;0;
82886;PMS5003;72660;51.258;-2.200;2023-12-07T06:13:22;0;0;
82886;PMS5003;72660;51.258;-2.200;2023-12-07T06:15:47;0;0;
82886;PMS5003;72660;51.258;-2.200;2023-12-07T06:18:13;0;0;
82886;PMS5003;72660;51.258;-2.200;2023-12-07T06:20:38;2;0;
82886;PMS5003;72660;51.258;-2.200;2023-12-07T06:23:04;0;0;
82886;PMS5003;72660;51.258;-2.200;2023-12-07T06:25:29;1;1;
82886;PMS5003;72660;51.258;-2.200;2023-12-07T06:27:54;0;0;
82886;PMS5003;72660;51.258;-2.200;2023-12-07T06:30:20;0;0;
82886;PMS5003;72660;51.258;-2.200;2023-12-07T06:32:45;0;0;
82886;PMS5003;72660;51.258;-2.200;2023-12-07T06:35:11;0;0;
82886;PMS5003;72660;51.258;-2.200;2023-12-07T06:37:36;1;1;
82886;PMS5003;72660;51.258;-2.200;2023-12-07T06:40:01;1;1;
82886;PMS5003;72660;51.258;-2.200;2023-12-07T06:42:26;0;0;
82886;PMS5003;72660;51.258;-2.200;2023-12-07T06:44:52;0;0;
82886;PMS5003;72660;51.258;-2.200;2023-12-07T06:47:17;3;1;
82886;PMS5003;72660;51.258;-2.200;2023-12-07T06:49:42;0;0;
82886;PMS5003;72660;51.258;-2.200;2023-12-07T06:52:08;0;0;
82886;PMS5003;72660;51.258;-2.200;2023-12-07T06:54:34;0;0;
82886;PMS5003;72660;51.258;-2.200;2023-12-07T06:56:59;0;0;
82886;PMS5003;72660;51.258;-2.200;2023-12-07T06:59:24;0;0;
82886;PMS5003;72660;51.258;-2.200;2023-12-07T07:01:49;1;1;
82886;PMS5003;72660;51.258;-2.200;2023-12-07T07:04:15;0;0;
82886;PMS5003;72660;51.258;-2.200;2023-12-07T07:06:40;2;2;
82886;PMS5003;72660;51.258;-2.200;2023-12-07T07:09:06;2;2;
82886;PMS5003;72660;51.258;-2.200;2023-12-07T07:11:31;1;1;
82886;PMS5003;72660;51.258;-2.200;2023-12-07T07:13:56;1;1;
82886;PMS5003;72660;51.258;-2.200;2023-12-07T07:16:22;1;1;
82886;PMS5003;72660;51.258;-2.200;2023-12-07T07:18:47;0;0;
82886;PMS5003;72660;51.258;-2.200;2023-12-07T07:21:12;2;1;
82886;PMS5003;72660;51.258;-2.200;2023-12-07T07:23:38;1;1;
82886;PMS5003;72660;51.258;-2.200;2023-12-07T07:26:03;2;2;
82886;PMS5003;72660;51.258;-2.200;2023-12-07T07:28:29;0;0;
82886;PMS5003;72660;51.258;-2.200;2023-12-07T07:30:54;1;1;
82886;PMS5003;72660;51.258;-2.200;2023-12-07T07:33:19;2;2;
82886;PMS5003;72660;51.258;-2.200;2023-12-07T07:35:45;2;1;
82886;PMS5003;72660;51.258;-2.200;2023-12-07T07:38:10;2;1;
82886;PMS5003;72660;51.258;-2.200;2023-12-07T07:40:36;2;2;
82886;PMS5003;72660;51.258;-2.200;2023-12-07T07:43:01;3;2;
82886;PMS5003;72660;51.258;-2.200;2023-12-07T07:45:26;1;1;
82886;PMS5003;72660;51.258;-2.200;2023-12-07T07:47:52;0;0;
82886;PMS5003;72660;51.258;-2.200;2023-12-07T07:50:17;2;2;
82886;PMS5003;72660;51.258;-2.200;2023-12-07T07:52:42;1;1;
82886;PMS5003;72660;51.258;-2.200;2023-12-07T07:55:09;1;1;
82886;PMS5003;72660;51.258;-2.200;2023-12-07T07:57:34;1;1;
82886;PMS5003;72660;51.258;-2.200;2023-12-07T07:59:59;1;1;
82886;PMS5003;72660;51.258;-2.200;2023-12-07T08:02:24;3;3;
82886;PMS5003;72660;51.258;-2.200;2023-12-07T08:04:50;1;1;
82886;PMS5003;72660;51.258;-2.200;2023-12-07T08:07:15;2;2;
82886;PMS5003;72660;51.258;-2.200;2023-12-07T08:09:40;2;2;
82886;PMS5003;72660;51.258;-2.200;2023-12-07T08:12:06;2;2;
82886;PMS5003;72660;51.258;-2.200;2023-12-07T08:14:31;2;2;
82886;PMS5003;72660;51.258;-2.200;2023-12-07T08:16:57;1;1;
82886;PMS5003;72660;51.258;-2.200;2023-12-07T08:19:22;1;1;
82886;PMS5003;72660;51.258;-2.200;2023-12-07T08:21:47;2;2;
82886;PMS5003;72660;51.258;-2.200;2023-12-07T08:24:13;2;2;
82886;PMS5003;72660;51.258;-2.200;2023-12-07T08:26:38;2;1;
82886;PMS5003;72660;51.258;-2.200;2023-12-07T08:29:03;2;2;
82886;PMS5003;72660;51.258;-2.200;2023-12-07T08:31:29;6;3;
82886;PMS5003;72660;51.258;-2.200;2023-12-07T08:33:55;4;4;
82886;PMS5003;72660;51.258;-2.200;2023-12-07T08:36:20;3;3;
82886;PMS5003;72660;51.258;-2.200;2023-12-07T08:38:45;5;2;
82886;PMS5003;72660;51.258;-2.200;2023-12-07T08:41:10;4;4;
82886;PMS5003;72660;51.258;-2.200;2023-12-07T08:43:36;5;2;
82886;PMS5003;72660;51.258;-2.200;2023-12-07T08:46:01;5;3;
82886;PMS5003;72660;51.258;-2.200;2023-12-07T08:48:27;2;2;
82886;PMS5003;72660;51.258;-2.200;2023-12-07T08:50:52;4;3;
82886;PMS5003;72660;51.258;-2.200;2023-12-07T08:53:17;5;4;
82886;PMS5003;72660;51.258;-2.200;2023-12-07T08:55:43;4;4;
82886;PMS5003;72660;51.258;-2.200;2023-12-07T08:58:08;6;4;
82886;PMS5003;72660;51.258;-2.200;2023-12-07T09:00:33;5;4;
82886;PMS5003;72660;51.258;-2.200;2023-12-07T09:02:59;4;4;
82886;PMS5003;72660;51.258;-2.200;2023-12-07T09:05:25;3;3;
82886;PMS5003;72660;51.258;-2.200;2023-12-07T09:07:50;5;5;
82886;PMS5003;72660;51.258;-2.200;2023-12-07T09:10:15;4;4;
82886;PMS5003;72660;51.258;-2.200;2023-12-07T09:12:40;5;4;
82886;PMS5003;72660;51.258;-2.200;2023-12-07T09:15:06;2;2;
82886;PMS5003;72660;51.258;-2.200;2023-12-07T09:17:31;4;3;
82886;PMS5003;72660;51.258;-2.200;2023-12-07T09:19:56;4;4;
82886;PMS5003;72660;51.258;-2.200;2023-12-07T09:22:22;2;2;
82886;PMS5003;72660;51.258;-2.200;2023-12-07T09:24:47;3;3;
82886;PMS5003;72660;51.258;-2.200;2023-12-07T09:27:13;3;3;
82886;PMS5003;72660;51.258;-2.200;2023-12-07T09:29:38;5;5;
82886;PMS5003;72660;51.258;-2.200;2023-12-07T09:32:04;3;3;
82886;PMS5003;72660;51.258;-2.200;2023-12-07T09:34:29;2;2;
82886;PMS5003;72660;51.258;-2.200;2023-12-07T09:39:19;5;4;
82886;PMS5003;72660;51.258;-2.200;2023-12-07T09:41:50;3;3;
82886;PMS5003;72660;51.258;-2.200;2023-12-07T09:44:10;3;3;
82886;PMS5003;72660;51.258;-2.200;2023-12-07T09:46:35;7;6;
82886;PMS5003;72660;51.258;-2.200;2023-12-07T09:49:01;6;5;
82886;PMS5003;72660;51.258;-2.200;2023-12-07T09:51:26;3;3;
82886;PMS5003;72660;51.258;-2.200;2023-12-07T09:53:51;2;2;
82886;PMS5003;72660;51.258;-2.200;2023-12-07T09:56:17;6;5;
82886;PMS5003;72660;51.258;-2.200;2023-12-07T09:58:42;6;4;
82886;PMS5003;72660;51.258;-2.200;2023-12-07T10:01:08;6;4;
82886;PMS5003;72660;51.258;-2.200;2023-12-07T10:03:33;5;4;
82886;PMS5003;72660;51.258;-2.200;2023-12-07T10:05:58;5;4;
82886;PMS5003;72660;51.258;-2.200;2023-12-07T10:08:25;3;3;
82886;PMS5003;72660;51.258;-2.200;2023-12-07T10:10:50;4;4;
82886;PMS5003;72660;51.258;-2.200;2023-12-07T10:13:14;5;5;
82886;PMS5003;72660;51.258;-2.200;2023-12-07T10:15:40;7;4;
82886;PMS5003;72660;51.258;-2.200;2023-12-07T10:18:05;3;3;
82886;PMS5003;72660;51.258;-2.200;2023-12-07T10:20:35;3;3;
82886;PMS5003;72660;51.258;-2.200;2023-12-07T10:23:02;3;3;
82886;PMS5003;72660;51.258;-2.200;2023-12-07T10:25:21;5;3;
82886;PMS5003;72660;51.258;-2.200;2023-12-07T10:27:46;4;3;
82886;PMS5003;72660;51.258;-2.200;2023-12-07T10:30:12;5;3;
82886;PMS5003;72660;51.258;-2.200;2023-12-07T10:32:38;3;3;
82886;PMS5003;72660;51.258;-2.200;2023-12-07T10:35:03;2;2;
82886;PMS5003;72660;51.258;-2.200;2023-12-07T10:37:28;2;2;
82886;PMS5003;72660;51.258;-2.200;2023-12-07T10:39:53;1;1;
82886;PMS5003;72660;51.258;-2.200;2023-12-07T10:42:19;4;1;
82886;PMS5003;72660;51.258;-2.200;2023-12-07T10:44:44;1;1;
82886;PMS5003;72660;51.258;-2.200;2023-12-07T10:47:09;3;2;
82886;PMS5003;72660;51.258;-2.200;2023-12-07T10:49:35;2;1;
82886;PMS5003;72660;51.258;-2.200;2023-12-07T10:52:01;3;1;
82886;PMS5003;72660;51.258;-2.200;2023-12-07T10:56:51;2;2;
82886;PMS5003;72660;51.258;-2.200;2023-12-07T10:59:17;1;1;
82886;PMS5003;72660;51.258;-2.200;2023-12-07T11:01:42;1;1;
82886;PMS5003;72660;51.258;-2.200;2023-12-07T11:04:08;0;0;
82886;PMS5003;72660;51.258;-2.200;2023-12-07T11:06:33;2;1;
82886;PMS5003;72660;51.258;-2.200;2023-12-07T11:08:59;1;1;
82886;PMS5003;72660;51.258;-2.200;2023-12-07T11:11:24;0;0;
82886;PMS5003;72660;51.258;-2.200;2023-12-07T11:13:52;1;1;
82886;PMS5003;72660;51.258;-2.200;2023-12-07T11:16:14;2;2;
82886;PMS5003;72660;51.258;-2.200;2023-12-07T11:18:39;1;1;
82886;PMS5003;72660;51.258;-2.200;2023-12-07T11:21:05;2;2;
82886;PMS5003;72660;51.258;-2.200;2023-12-07T11:23:30;2;2;
82886;PMS5003;72660;51.258;-2.200;2023-12-07T11:25:56;0;0;
82886;PMS5003;72660;51.258;-2.200;2023-12-07T11:30:46;1;1;
82886;PMS5003;72660;51.258;-2.200;2023-12-07T11:33:12;2;2;
82886;PMS5003;72660;51.258;-2.200;2023-12-07T11:38:03;3;3;
82886;PMS5003;72660;51.258;-2.200;2023-12-07T11:40:29;2;2;
82886;PMS5003;72660;51.258;-2.200;2023-12-07T11:42:53;2;2;
82886;PMS5003;72660;51.258;-2.200;2023-12-07T11:50:10;2;2;
82886;PMS5003;72660;51.258;-2.200;2023-12-07T11:52:35;2;2;
82886;PMS5003;72660;51.258;-2.200;2023-12-07T11:55:00;1;1;
82886;PMS5003;72660;51.258;-2.200;2023-12-07T11:57:26;1;1;
82886;PMS5003;72660;51.258;-2.200;2023-12-07T11:59:51;1;1;
82886;PMS5003;72660;51.258;-2.200;2023-12-07T12:02:16;1;1;
82886;PMS5003;72660;51.258;-2.200;2023-12-07T12:04:42;5;1;
82886;PMS5003;72660;51.258;-2.200;2023-12-07T12:07:07;0;0;
82886;PMS5003;72660;51.258;-2.200;2023-12-07T12:09:33;1;1;
82886;PMS5003;72660;51.258;-2.200;2023-12-07T12:11:58;1;1;
82886;PMS5003;72660;51.258;-2.200;2023-12-07T12:14:23;0;0;
82886;PMS5003;72660;51.258;-2.200;2023-12-07T12:16:49;1;1;
82886;PMS5003;72660;51.258;-2.200;2023-12-07T12:19:14;1;1;
82886;PMS5003;72660;51.258;-2.200;2023-12-07T12:21:40;0;0;
82886;PMS5003;72660;51.258;-2.200;2023-12-07T12:24:05;2;0;
82886;PMS5003;72660;51.258;-2.200;2023-12-07T12:26:30;1;1;
82886;PMS5003;72660;51.258;-2.200;2023-12-07T12:28:55;2;1;
82886;PMS5003;72660;51.258;-2.200;2023-12-07T12:31:21;1;1;
82886;PMS5003;72660;51.258;-2.200;2023-12-07T12:33:47;1;0;
82886;PMS5003;72660;51.258;-2.200;2023-12-07T12:36:12;0;0;
82886;PMS5003;72660;51.258;-2.200;2023-12-07T12:38:37;3;1;
82886;PMS5003;72660;51.258;-2.200;2023-12-07T12:41:02;0;0;
82886;PMS5003;72660;51.258;-2.200;2023-12-07T12:43:27;1;1;
82886;PMS5003;72660;51.258;-2.200;2023-12-07T12:45:53;0;0;
82886;PMS5003;72660;51.258;-2.200;2023-12-07T12:48:18;1;1;
82886;PMS5003;72660;51.258;-2.200;2023-12-07T12:50:43;1;1;
82886;PMS5003;72660;51.258;-2.200;2023-12-07T12:53:10;1;1;
82886;PMS5003;72660;51.258;-2.200;2023-12-07T12:55:35;0;0;
82886;PMS5003;72660;51.258;-2.200;2023-12-07T12:57:59;0;0;
82886;PMS5003;72660;51.258;-2.200;2023-12-07T13:00:25;0;0;
82886;PMS5003;72660;51.258;-2.200;2023-12-07T13:02:50;0;0;
82886;PMS5003;72660;51.258;-2.200;2023-12-07T13:05:15;0;0;
82886;PMS5003;72660;51.258;-2.200;2023-12-07T13:07:41;0;0;
82886;PMS5003;72660;51.258;-2.200;2023-12-07T13:10:06;0;0;
82886;PMS5003;72660;51.258;-2.200;2023-12-07T13:12:31;0;0;
82886;PMS5003;72660;51.258;-2.200;2023-12-07T13:14:57;0;0;
82886;PMS5003;72660;51.258;-2.200;2023-12-07T13:17:22;0;0;
82886;PMS5003;72660;51.258;-2.200;2023-12-07T13:19:47;0;0;
82886;PMS5003;72660;51.258;-2.200;2023-12-07T13:22:13;0;0;
82886;PMS5003;72660;51.258;-2.200;2023-12-07T13:24:38;0;0;
82886;PMS5003;72660;51.258;-2.200;2023-12-07T13:27:04;0;0;
82886;PMS5003;72660;51.258;-2.200;2023-12-07T13:29:29;0;0;
82886;PMS5003;72660;51.258;-2.200;2023-12-07T13:31:54;0;0;
82886;PMS5003;72660;51.258;-2.200;2023-12-07T13:34:20;0;0;
82886;PMS5003;72660;51.258;-2.200;2023-12-07T13:36:45;1;0;
82886;PMS5003;72660;51.258;-2.200;2023-12-07T13:39:10;0;0;
82886;PMS5003;72660;51.258;-2.200;2023-12-07T13:41:36;1;0;
82886;PMS5003;72660;51.258;-2.200;2023-12-07T13:44:01;0;0;
82886;PMS5003;72660;51.258;-2.200;2023-12-07T13:46:27;0;0;
82886;PMS5003;72660;51.258;-2.200;2023-12-07T13:48:52;0;0;
82886;PMS5003;72660;51.258;-2.200;2023-12-07T13:51:17;0;0;
82886;PMS5003;72660;51.258;-2.200;2023-12-07T13:53:42;0;0;
82886;PMS5003;72660;51.258;-2.200;2023-12-07T13:56:08;0;0;
82886;PMS5003;72660;51.258;-2.200;2023-12-07T13:58:33;2;1;
82886;PMS5003;72660;51.258;-2.200;2023-12-07T14:00:58;0;0;
82886;PMS5003;72660;51.258;-2.200;2023-12-07T14:03:24;0;0;
82886;PMS5003;72660;51.258;-2.200;2023-12-07T14:05:49;1;0;
82886;PMS5003;72660;51.258;-2.200;2023-12-07T14:08:15;0;0;
82886;PMS5003;72660;51.258;-2.200;2023-12-07T14:10:40;0;0;
82886;PMS5003;72660;51.258;-2.200;2023-12-07T14:13:05;1;1;
82886;PMS5003;72660;51.258;-2.200;2023-12-07T14:15:30;0;0;
82886;PMS5003;72660;51.258;-2.200;2023-12-07T14:17:56;1;1;
82886;PMS5003;72660;51.258;-2.200;2023-12-07T14:20:21;0;0;
82886;PMS5003;72660;51.258;-2.200;2023-12-07T14:22:47;0;0;
82886;PMS5003;72660;51.258;-2.200;2023-12-07T14:25:12;0;0;
82886;PMS5003;72660;51.258;-2.200;2023-12-07T14:27:37;0;0;
82886;PMS5003;72660;51.258;-2.200;2023-12-07T14:30:03;0;0;
82886;PMS5003;72660;51.258;-2.200;2023-12-07T14:32:28;0;0;
82886;PMS5003;72660;51.258;-2.200;2023-12-07T14:34:53;1;1;
82886;PMS5003;72660;51.258;-2.200;2023-12-07T14:37:19;0;0;
82886;PMS5003;72660;51.258;-2.200;2023-12-07T14:39:44;1;0;
82886;PMS5003;72660;51.258;-2.200;2023-12-07T14:42:09;1;1;
82886;PMS5003;72660;51.258;-2.200;2023-12-07T14:44:35;1;1;
82886;PMS5003;72660;51.258;-2.200;2023-12-07T14:47:00;1;1;
82886;PMS5003;72660;51.258;-2.200;2023-12-07T14:49:25;0;0;
82886;PMS5003;72660;51.258;-2.200;2023-12-07T14:51:53;0;0;
82886;PMS5003;72660;51.258;-2.200;2023-12-07T14:54:16;0;0;
82886;PMS5003;72660;51.258;-2.200;2023-12-07T14:56:42;1;1;
82886;PMS5003;72660;51.258;-2.200;2023-12-07T14:59:07;0;0;
82886;PMS5003;72660;51.258;-2.200;2023-12-07T15:01:32;0;0;
82886;PMS5003;72660;51.258;-2.200;2023-12-07T15:03:58;1;1;
82886;PMS5003;72660;51.258;-2.200;2023-12-07T15:06:23;0;0;
82886;PMS5003;72660;51.258;-2.200;2023-12-07T15:08:48;1;1;
82886;PMS5003;72660;51.258;-2.200;2023-12-07T15:11:14;2;0;
82886;PMS5003;72660;51.258;-2.200;2023-12-07T15:13:39;1;1;
82886;PMS5003;72660;51.258;-2.200;2023-12-07T15:16:05;1;1;
82886;PMS5003;72660;51.258;-2.200;2023-12-07T15:18:30;1;1;
82886;PMS5003;72660;51.258;-2.200;2023-12-07T15:20:55;0;0;
82886;PMS5003;72660;51.258;-2.200;2023-12-07T15:23:21;1;1;
82886;PMS5003;72660;51.258;-2.200;2023-12-07T15:25:46;1;1;
82886;PMS5003;72660;51.258;-2.200;2023-12-07T15:28:11;1;1;
82886;PMS5003;72660;51.258;-2.200;2023-12-07T15:30:37;2;2;
82886;PMS5003;72660;51.258;-2.200;2023-12-07T15:33:02;2;2;
82886;PMS5003;72660;51.258;-2.200;2023-12-07T15:35:27;0;0;
82886;PMS5003;72660;51.258;-2.200;2023-12-07T15:37:53;0;0;
82886;PMS5003;72660;51.258;-2.200;2023-12-07T15:40:18;1;1;
82886;PMS5003;72660;51.258;-2.200;2023-12-07T15:42:44;2;2;
82886;PMS5003;72660;51.258;-2.200;2023-12-07T15:45:09;0;0;
82886;PMS5003;72660;51.258;-2.200;2023-12-07T15:47:34;0;0;
82886;PMS5003;72660;51.258;-2.200;2023-12-07T15:50:00;1;1;
82886;PMS5003;72660;51.258;-2.200;2023-12-07T15:52:25;2;2;
82886;PMS5003;72660;51.258;-2.200;2023-12-07T15:54:50;0;0;
82886;PMS5003;72660;51.258;-2.200;2023-12-07T15:57:16;1;1;
82886;PMS5003;72660;51.258;-2.200;2023-12-07T15:59:41;0;0;
82886;PMS5003;72660;51.258;-2.200;2023-12-07T16:02:06;2;1;
82886;PMS5003;72660;51.258;-2.200;2023-12-07T16:04:32;1;1;
82886;PMS5003;72660;51.258;-2.200;2023-12-07T16:07:03;0;0;
82886;PMS5003;72660;51.258;-2.200;2023-12-07T16:09:22;1;1;
82886;PMS5003;72660;51.258;-2.200;2023-12-07T16:11:48;1;1;
82886;PMS5003;72660;51.258;-2.200;2023-12-07T16:14:13;1;1;
82886;PMS5003;72660;51.258;-2.200;2023-12-07T16:16:38;0;0;
82886;PMS5003;72660;51.258;-2.200;2023-12-07T16:19:04;1;1;
82886;PMS5003;72660;51.258;-2.200;2023-12-07T16:21:29;0;0;
82886;PMS5003;72660;51.258;-2.200;2023-12-07T16:23:54;0;0;
82886;PMS5003;72660;51.258;-2.200;2023-12-07T16:26:20;0;0;
82886;PMS5003;72660;51.258;-2.200;2023-12-07T16:28:45;1;1;
82886;PMS5003;72660;51.258;-2.200;2023-12-07T16:31:10;0;0;
82886;PMS5003;72660;51.258;-2.200;2023-12-07T16:33:36;0;0;